Time;durP1;ratioP1;P1;durP2;ratioP2;P2;SDS_P1;SDS_P2;PMS_P1;PMS_P2;Temp;Humidity;BMP_temperature;BMP_pressure;BME280_temperature;BME280_humidity;BME280_pressure;Samples;Min_cycle;Max_cycle;Signal;HPM_P1;HPM_P2
2022/11/23 00:00:45;;;;;;;25.20;14.02;;;6.70;99.90;;;;;;6188119;23;20096;-81
2022/11/23 00:03:14;;;;;;;26.25;13.55;;;6.70;99.90;;;;;;6161425;23;20059;-81
2022/11/23 00:05:40;;;;;;;23.45;13.15;;;6.70;99.90;;;;;;6187934;23;20017;-81
2022/11/23 00:08:06;;;;;;;23.80;13.52;;;6.70;99.90;;;;;;6188036;23;20068;-81
2022/11/23 00:10:32;;;;;;;28.55;15.90;;;6.70;99.90;;;;;;6161348;23;20025;-81
2022/11/23 00:12:57;;;;;;;24.38;14.80;;;6.70;99.90;;;;;;6187612;23;20020;-81
2022/11/23 00:15:23;;;;;;;29.15;14.38;;;6.70;99.90;;;;;;6187474;23;20020;-81
2022/11/23 00:17:48;;;;;;;26.20;14.80;;;6.80;99.90;;;;;;6187575;23;20032;-81
2022/11/23 00:20:14;;;;;;;27.42;15.23;;;6.80;99.90;;;;;;6161284;23;20101;-81
2022/11/23 00:22:40;;;;;;;28.00;14.82;;;6.80;99.90;;;;;;6187921;23;20434;-81
2022/11/23 00:25:06;;;;;;;29.48;15.75;;;6.80;99.90;;;;;;6187782;23;20357;-81
2022/11/23 00:27:32;;;;;;;27.00;14.85;;;6.80;99.90;;;;;;6161103;23;20531;-81
2022/11/23 00:29:57;;;;;;;25.17;13.98;;;6.80;99.90;;;;;;6187819;23;20017;-81
2022/11/23 00:32:23;;;;;;;30.45;15.43;;;6.90;99.90;;;;;;6187780;23;20100;-81
2022/11/23 00:34:49;;;;;;;26.55;14.23;;;6.90;99.90;;;;;;6161020;23;20017;-81
2022/11/23 00:37:14;;;;;;;27.75;14.65;;;6.80;99.90;;;;;;6161180;23;20072;-82
2022/11/23 00:39:40;;;;;;;25.73;14.15;;;6.90;99.90;;;;;;6187740;23;20017;-80
2022/11/23 00:42:05;;;;;;;30.73;14.13;;;6.90;99.90;;;;;;6187705;23;20013;-80
2022/11/23 00:44:31;;;;;;;28.92;15.68;;;6.90;99.90;;;;;;6187563;23;20020;-80
2022/11/23 00:46:57;;;;;;;28.42;15.02;;;6.90;99.90;;;;;;6187686;23;20016;-80
2022/11/23 00:49:22;;;;;;;29.25;15.50;;;6.90;99.90;;;;;;6160483;23;20033;-80
2022/11/23 00:51:48;;;;;;;31.38;15.98;;;6.90;99.90;;;;;;6187614;23;20009;-79
2022/11/23 00:54:13;;;;;;;30.60;15.00;;;7.00;99.90;;;;;;6161020;23;20102;-79
2022/11/23 00:56:39;;;;;;;28.50;15.02;;;7.00;99.90;;;;;;6160887;23;20017;-79
2022/11/23 00:59:05;;;;;;;25.70;14.02;;;7.00;99.90;;;;;;6187876;23;20056;-79
2022/11/23 01:01:35;;;;;;;28.50;15.23;;;7.00;99.90;;;;;;6187537;23;20032;-79
2022/11/23 01:04:03;;;;;;;26.70;15.35;;;7.00;99.90;;;;;;6160740;23;20349;-79
2022/11/23 01:06:32;;;;;;;26.92;15.57;;;7.00;99.90;;;;;;6160748;23;20052;-79
2022/11/23 01:09:01;;;;;;;26.50;14.18;;;7.10;99.90;;;;;;6160816;23;20068;-79
2022/11/23 01:11:28;;;;;;;31.92;16.13;;;7.10;99.90;;;;;;6187406;23;20017;-80
2022/11/23 01:13:54;;;;;;;31.80;16.45;;;7.10;99.90;;;;;;6187451;23;20048;-79
2022/11/23 01:16:23;;;;;;;30.73;14.95;;;7.10;99.90;;;;;;6186939;23;20020;-79
2022/11/23 01:18:53;;;;;;;29.85;15.52;;;7.10;99.90;;;;;;6187385;23;20143;-79
2022/11/23 01:21:18;;;;;;;27.60;14.27;;;7.10;99.90;;;;;;6187317;23;20024;-79
2022/11/23 01:23:44;;;;;;;26.80;14.40;;;7.10;99.90;;;;;;6186934;23;20017;-79
2022/11/23 01:26:10;;;;;;;30.67;15.10;;;7.20;99.90;;;;;;6160677;23;20020;-79
2022/11/23 01:28:38;;;;;;;28.45;14.80;;;7.20;99.90;;;;;;6187227;23;20016;-79
2022/11/23 01:31:05;;;;;;;28.15;15.23;;;7.20;99.90;;;;;;6186823;23;20398;-79
2022/11/23 01:33:31;;;;;;;27.48;13.43;;;7.10;99.90;;;;;;6187252;23;20013;-79
2022/11/23 01:35:57;;;;;;;26.17;14.23;;;7.20;99.90;;;;;;6160587;23;20398;-79
2022/11/23 01:38:22;;;;;;;28.98;14.10;;;7.20;99.90;;;;;;6160527;23;20047;-79
2022/11/23 01:40:48;;;;;;;27.25;14.00;;;7.20;99.90;;;;;;6160499;23;20468;-79
2022/11/23 01:43:16;;;;;;;27.83;14.13;;;7.30;99.90;;;;;;6187357;23;20017;-79
2022/11/23 01:45:53;;;;;;;25.02;14.48;;;7.30;99.90;;;;;;6186684;23;20462;-79
2022/11/23 01:48:24;;;;;;;29.92;14.25;;;7.30;99.90;;;;;;6187178;23;20016;-79
2022/11/23 01:50:52;;;;;;;32.05;15.38;;;7.30;99.90;;;;;;6160398;23;20025;-79
2022/11/23 01:53:19;;;;;;;28.70;14.13;;;7.30;99.90;;;;;;6160328;23;20021;-80
2022/11/23 01:55:48;;;;;;;23.42;13.43;;;7.30;99.90;;;;;;6187084;23;20075;-79
2022/11/23 01:58:19;;;;;;;29.50;14.30;;;7.30;99.90;;;;;;6186933;23;20025;-79
2022/11/23 02:00:45;;;;;;;26.63;13.68;;;7.40;99.90;;;;;;6160381;23;20446;-79
2022/11/23 02:03:12;;;;;;;25.30;14.50;;;7.30;99.90;;;;;;6186942;23;20017;-79
2022/11/23 02:05:45;;;;;;;25.38;13.07;;;7.30;99.90;;;;;;6186465;23;20381;-79
2022/11/23 02:08:13;;;;;;;32.53;14.52;;;7.40;99.90;;;;;;6186517;23;20468;-79
2022/11/23 02:10:39;;;;;;;24.92;13.40;;;7.40;99.90;;;;;;6160258;23;20047;-79
2022/11/23 02:13:08;;;;;;;28.77;14.23;;;7.40;99.90;;;;;;6160205;23;20352;-79
2022/11/23 02:15:35;;;;;;;27.15;13.65;;;7.40;99.90;;;;;;6154996;23;20055;-79
2022/11/23 02:18:04;;;;;;;25.38;13.80;;;7.40;99.90;;;;;;6157010;23;20449;-79
2022/11/23 02:20:30;;;;;;;27.23;15.05;;;7.40;99.90;;;;;;6156595;23;20438;-79
2022/11/23 02:23:03;;;;;;;28.02;15.13;;;7.40;99.90;;;;;;6156944;23;20097;-79
2022/11/23 02:25:42;;;;;;;31.45;15.68;;;7.40;99.90;;;;;;6156580;23;20457;-79
2022/11/23 02:28:15;;;;;;;26.45;13.68;;;7.40;99.90;;;;;;6156697;23;20021;-79
2022/11/23 02:30:43;;;;;;;30.48;14.23;;;7.40;99.90;;;;;;6130528;23;20494;-79
2022/11/23 02:33:08;;;;;;;28.75;14.00;;;7.40;99.90;;;;;;6156903;23;20041;-79
2022/11/23 02:35:34;;;;;;;27.27;14.05;;;7.40;99.90;;;;;;6130508;23;20021;-79
2022/11/23 02:38:03;;;;;;;28.27;13.50;;;7.40;99.90;;;;;;6156453;23;20016;-79
2022/11/23 02:40:34;;;;;;;28.85;13.63;;;7.40;99.90;;;;;;6156842;23;20052;-79
2022/11/23 02:43:01;;;;;;;25.90;14.68;;;7.40;99.90;;;;;;6130338;23;20025;-79
2022/11/23 02:45:34;;;;;;;28.65;14.45;;;7.40;99.90;;;;;;6130245;23;20026;-79
2022/11/23 02:48:00;;;;;;;25.30;13.73;;;7.50;99.90;;;;;;6130421;23;20014;-79
2022/11/23 02:50:26;;;;;;;31.35;14.15;;;7.40;99.90;;;;;;6156715;23;20076;-79
2022/11/23 02:52:51;;;;;;;26.25;13.90;;;7.40;99.90;;;;;;6130322;23;20018;-79
2022/11/23 02:55:17;;;;;;;29.45;14.43;;;7.50;99.90;;;;;;6156298;23;20431;-79
2022/11/23 02:57:43;;;;;;;29.20;14.98;;;7.40;99.90;;;;;;6156298;23;20462;-79
2022/11/23 03:00:10;;;;;;;30.63;14.45;;;7.50;99.90;;;;;;6130201;23;20029;-79
2022/11/23 03:02:35;;;;;;;36.25;17.00;;;7.50;99.90;;;;;;6156663;23;20014;-79
2022/11/23 03:05:01;;;;;;;33.05;13.95;;;7.50;99.90;;;;;;6156490;23;20028;-80
2022/11/23 03:07:26;;;;;;;30.52;15.25;;;7.50;99.90;;;;;;6156936;23;20427;-79
2022/11/23 03:09:52;;;;;;;29.48;15.07;;;7.50;99.90;;;;;;6130166;23;20025;-79
2022/11/23 03:12:18;;;;;;;28.90;14.70;;;7.50;99.90;;;;;;6156049;23;20083;-79
2022/11/23 03:14:43;;;;;;;32.85;15.73;;;7.50;99.90;;;;;;6155950;23;20025;-79
2022/11/23 03:17:09;;;;;;;26.70;15.75;;;7.60;99.90;;;;;;6130100;23;20021;-79
2022/11/23 03:19:35;;;;;;;35.47;15.85;;;7.50;99.90;;;;;;6156210;23;20028;-79
2022/11/23 03:22:00;;;;;;;37.08;14.82;;;7.50;99.90;;;;;;6130119;23;20049;-79
2022/11/23 03:24:26;;;;;;;31.25;15.07;;;7.50;99.90;;;;;;6130260;23;20049;-79
2022/11/23 03:26:52;;;;;;;31.90;15.02;;;7.50;99.90;;;;;;6156476;23;20021;-79
2022/11/23 03:29:17;;;;;;;36.58;16.60;;;7.50;99.90;;;;;;6129995;23;20025;-79
2022/11/23 03:31:43;;;;;;;29.38;14.70;;;7.50;99.90;;;;;;6156506;23;20449;-79
2022/11/23 03:34:09;;;;;;;32.33;15.57;;;7.50;99.90;;;;;;6156452;23;20343;-79
2022/11/23 03:36:35;;;;;;;35.20;17.38;;;7.50;99.90;;;;;;6156467;23;20022;-79
2022/11/23 03:39:00;;;;;;;39.28;17.23;;;7.50;99.90;;;;;;6156109;23;20076;-79
2022/11/23 03:41:26;;;;;;;33.97;15.93;;;7.50;99.90;;;;;;6156472;23;20430;-79
2022/11/23 03:43:52;;;;;;;35.13;15.10;;;7.50;99.90;;;;;;6129937;23;20022;-80
2022/11/23 03:46:18;;;;;;;38.83;16.05;;;7.50;99.90;;;;;;6130616;23;20084;-79
2022/11/23 03:48:43;;;;;;;35.58;16.73;;;7.50;99.90;;;;;;6156402;23;20013;-79
2022/11/23 03:51:09;;;;;;;32.20;15.27;;;7.50;99.90;;;;;;6156020;23;20397;-79
2022/11/23 03:53:35;;;;;;;32.17;16.60;;;7.50;99.90;;;;;;6156349;23;20021;-79
2022/11/23 03:56:00;;;;;;;33.00;16.85;;;7.50;99.90;;;;;;6156395;23;20028;-78
2022/11/23 03:58:26;;;;;;;33.75;16.08;;;7.50;99.90;;;;;;6156087;23;20033;-78
2022/11/23 04:00:51;;;;;;;33.33;14.85;;;7.50;99.90;;;;;;6129923;23;20025;-79
2022/11/23 04:03:17;;;;;;;35.00;16.10;;;7.50;99.90;;;;;;6156382;23;20018;-78
2022/11/23 04:05:43;;;;;;;37.25;16.50;;;7.50;99.90;;;;;;6129881;23;20032;-79
2022/11/23 04:08:08;;;;;;;38.97;15.30;;;7.60;99.90;;;;;;6156087;23;20076;-78
2022/11/23 04:10:34;;;;;;;35.38;15.48;;;7.50;99.90;;;;;;6129869;23;20028;-78
2022/11/23 04:13:01;;;;;;;36.08;16.55;;;7.60;99.90;;;;;;6155943;23;20026;-79
2022/11/23 04:15:27;;;;;;;41.17;17.80;;;7.50;99.90;;;;;;6129731;23;20152;-78
2022/11/23 04:17:54;;;;;;;38.25;17.30;;;7.60;99.90;;;;;;6156191;23;20454;-78
2022/11/23 04:20:19;;;;;;;37.17;18.13;;;7.60;99.90;;;;;;6155970;23;20048;-79
2022/11/23 04:22:45;;;;;;;39.80;17.15;;;7.60;99.90;;;;;;6156037;23;20025;-79
2022/11/23 04:25:11;;;;;;;35.53;17.55;;;7.60;99.90;;;;;;6157651;23;20023;-79
2022/11/23 04:27:36;;;;;;;36.97;16.55;;;7.60;99.90;;;;;;6158071;23;20013;-78
2022/11/23 04:30:03;;;;;;;36.53;17.02;;;7.60;99.90;;;;;;6131588;23;20342;-78
2022/11/23 04:32:29;;;;;;;39.88;17.83;;;7.50;99.90;;;;;;6156645;23;20041;-78
2022/11/23 04:34:54;;;;;;;46.83;18.63;;;7.60;99.90;;;;;;6157996;23;20036;-79
2022/11/23 04:37:20;;;;;;;39.90;19.02;;;7.50;99.90;;;;;;6158018;23;20322;-78
2022/11/23 04:39:46;;;;;;;37.60;18.70;;;7.50;99.90;;;;;;6157502;23;20342;-79
2022/11/23 04:42:12;;;;;;;46.85;19.02;;;7.50;99.90;;;;;;6131537;23;20021;-79
2022/11/23 04:44:37;;;;;;;39.40;18.80;;;7.50;99.90;;;;;;6131430;23;20018;-79
2022/11/23 04:47:03;;;;;;;42.47;17.38;;;7.50;99.90;;;;;;6157880;23;20026;-79
2022/11/23 04:49:29;;;;;;;44.78;19.92;;;7.50;99.90;;;;;;6131435;23;20006;-79
2022/11/23 04:51:54;;;;;;;45.67;19.58;;;7.50;99.90;;;;;;6157801;23;20097;-79
2022/11/23 04:54:20;;;;;;;45.65;19.98;;;7.50;99.90;;;;;;6157806;23;20017;-79
2022/11/23 04:56:45;;;;;;;41.28;19.77;;;7.50;99.90;;;;;;6157771;23;20025;-79
2022/11/23 04:59:11;;;;;;;43.33;20.52;;;7.50;99.90;;;;;;6157830;23;20021;-79
2022/11/23 05:01:37;;;;;;;46.10;19.30;;;7.50;99.90;;;;;;6157741;23;20020;-79
2022/11/23 05:04:03;;;;;;;51.75;22.58;;;7.60;99.90;;;;;;6131175;23;20017;-79
2022/11/23 05:06:28;;;;;;;46.83;21.10;;;7.50;99.90;;;;;;6157700;23;20496;-79
2022/11/23 05:08:54;;;;;;;46.08;19.98;;;7.50;99.90;;;;;;6157651;23;20014;-79
2022/11/23 05:11:19;;;;;;;50.13;21.80;;;7.50;99.90;;;;;;6131409;23;20320;-79
2022/11/23 05:13:45;;;;;;;46.00;20.42;;;7.50;99.90;;;;;;6131237;23;20040;-79
2022/11/23 05:16:11;;;;;;;47.05;20.92;;;7.50;99.90;;;;;;6131056;23;20021;-79
2022/11/23 05:18:37;;;;;;;49.15;20.40;;;7.50;99.90;;;;;;6157538;23;20029;-79
2022/11/23 05:21:02;;;;;;;53.67;21.02;;;7.50;99.90;;;;;;6157626;23;20488;-79
2022/11/23 05:23:28;;;;;;;51.72;21.92;;;7.50;99.90;;;;;;6131097;23;20343;-79
2022/11/23 05:25:53;;;;;;;50.95;22.35;;;7.50;99.90;;;;;;6157499;23;20060;-79
2022/11/23 05:28:20;;;;;;;53.42;23.10;;;7.50;99.90;;;;;;6157522;23;20018;-79
2022/11/23 05:30:47;;;;;;;56.63;23.67;;;7.50;99.90;;;;;;6131032;23;20021;-79
2022/11/23 05:33:13;;;;;;;51.45;23.70;;;7.50;99.90;;;;;;6157030;23;20445;-79
2022/11/23 05:35:38;;;;;;;50.38;22.77;;;7.50;99.90;;;;;;6157230;23;20045;-79
2022/11/23 05:38:04;;;;;;;53.97;22.73;;;7.60;99.90;;;;;;6157409;23;20021;-79
2022/11/23 05:40:30;;;;;;;58.72;23.13;;;7.60;99.90;;;;;;6157400;23;20022;-79
2022/11/23 05:42:56;;;;;;;54.75;24.20;;;7.50;99.90;;;;;;6157379;23;20049;-79
2022/11/23 05:45:23;;;;;;;52.45;24.17;;;7.50;99.90;;;;;;6156751;23;20044;-79
2022/11/23 05:47:53;;;;;;;52.53;22.20;;;7.50;99.90;;;;;;6157299;23;20013;-79
2022/11/23 05:50:20;;;;;;;53.20;22.40;;;7.50;99.90;;;;;;6130680;23;20021;-79
2022/11/23 05:52:45;;;;;;;58.22;24.33;;;7.50;99.90;;;;;;6157248;23;20021;-79
2022/11/23 05:55:11;;;;;;;50.67;23.23;;;7.60;99.90;;;;;;6130813;23;20066;-79
2022/11/23 05:57:37;;;;;;;53.42;24.38;;;7.50;99.90;;;;;;6130842;23;20017;-79
2022/11/23 06:00:09;;;;;;;61.65;25.08;;;7.60;99.90;;;;;;6130848;23;20036;-79
2022/11/23 06:02:34;;;;;;;54.22;24.35;;;7.60;99.90;;;;;;6130760;23;20346;-79
2022/11/23 06:05:00;;;;;;;59.63;24.17;;;7.50;99.90;;;;;;6157020;23;20445;-79
2022/11/23 06:07:25;;;;;;;58.55;24.13;;;7.60;99.90;;;;;;6157179;23;20020;-79
2022/11/23 06:09:51;;;;;;;57.67;24.60;;;7.60;99.90;;;;;;6156810;23;20025;-79
2022/11/23 06:12:17;;;;;;;65.15;24.63;;;7.50;99.90;;;;;;6130619;23;20013;-79
2022/11/23 06:14:42;;;;;;;58.58;24.15;;;7.50;99.90;;;;;;6156972;23;20028;-78
2022/11/23 06:17:08;;;;;;;55.33;25.10;;;7.50;99.90;;;;;;6157003;23;20045;-79
2022/11/23 06:19:34;;;;;;;66.00;25.15;;;7.50;99.90;;;;;;6130602;23;20081;-79
2022/11/23 06:21:59;;;;;;;67.63;25.25;;;7.50;99.90;;;;;;6156624;23;20387;-79
2022/11/23 06:24:26;;;;;;;58.92;24.10;;;7.40;99.90;;;;;;6157451;23;20068;-78
2022/11/23 06:26:52;;;;;;;62.78;26.70;;;7.50;99.90;;;;;;6156559;23;20022;-78
2022/11/23 06:29:21;;;;;;;66.47;26.75;;;7.60;99.90;;;;;;6156867;23;20020;-79
2022/11/23 06:31:46;;;;;;;62.83;26.00;;;7.50;99.90;;;;;;6156880;23;20017;-79
2022/11/23 06:34:12;;;;;;;56.42;23.85;;;7.50;99.90;;;;;;6156536;23;20349;-79
2022/11/23 06:36:38;;;;;;;62.42;26.50;;;7.50;99.90;;;;;;6156820;23;20009;-79
2022/11/23 06:39:04;;;;;;;57.83;23.55;;;7.50;99.90;;;;;;6130503;23;20323;-79
2022/11/23 06:41:30;;;;;;;60.45;25.13;;;7.50;99.90;;;;;;6156852;23;20080;-79
2022/11/23 06:43:55;;;;;;;54.05;23.25;;;7.50;99.90;;;;;;6130253;23;20018;-79
2022/11/23 06:46:21;;;;;;;59.63;23.80;;;7.50;99.90;;;;;;6156456;23;20075;-79
2022/11/23 06:48:47;;;;;;;51.70;22.38;;;7.50;99.90;;;;;;6130318;23;20053;-79
2022/11/23 06:51:13;;;;;;;52.30;22.63;;;7.40;99.90;;;;;;6130372;23;20092;-79
2022/11/23 06:53:40;;;;;;;48.17;22.67;;;7.40;99.90;;;;;;6131346;23;20018;-79
2022/11/23 06:56:06;;;;;;;58.83;24.38;;;7.50;99.90;;;;;;6130282;23;20025;-79
2022/11/23 06:58:31;;;;;;;50.08;22.20;;;7.50;99.90;;;;;;6156367;23;20457;-79
2022/11/23 07:01:03;;;;;;;44.92;21.90;;;7.50;99.90;;;;;;6156572;23;20075;-79
2022/11/23 07:03:29;;;;;;;54.03;21.98;;;7.50;99.90;;;;;;6156616;23;20014;-80
2022/11/23 07:05:54;;;;;;;51.28;23.05;;;7.50;99.90;;;;;;6130113;23;20350;-79
2022/11/23 07:08:20;;;;;;;50.95;21.27;;;7.50;99.90;;;;;;6130016;23;20452;-79
2022/11/23 07:10:46;;;;;;;47.17;20.20;;;7.40;99.90;;;;;;6156343;23;20081;-78
2022/11/23 07:13:13;;;;;;;49.47;21.80;;;7.40;99.90;;;;;;6129876;23;20021;-79
2022/11/23 07:15:40;;;;;;;47.90;20.00;;;7.50;99.90;;;;;;6155709;23;20105;-78
2022/11/23 07:18:06;;;;;;;47.78;18.85;;;7.40;99.90;;;;;;6129189;23;20021;-79
2022/11/23 07:20:32;;;;;;;44.22;20.38;;;7.40;99.90;;;;;;6128226;23;20320;-78
2022/11/23 07:23:07;;;;;;;45.65;19.77;;;7.50;99.90;;;;;;6129977;23;20017;-79
2022/11/23 07:25:34;;;;;;;47.60;19.70;;;7.50;99.90;;;;;;6129993;23;20072;-79
2022/11/23 07:28:01;;;;;;;46.15;20.08;;;7.40;99.90;;;;;;6156448;23;20009;-79
2022/11/23 07:30:29;;;;;;;42.55;18.88;;;7.50;99.90;;;;;;6155993;23;20349;-79
2022/11/23 07:33:00;;;;;;;43.90;19.48;;;7.50;99.90;;;;;;6130037;23;20028;-79
2022/11/23 07:35:25;;;;;;;41.80;19.88;;;7.40;99.90;;;;;;6129954;23;20021;-79
2022/11/23 07:37:51;;;;;;;42.90;18.27;;;7.40;99.90;;;;;;6129912;23;20564;-79
2022/11/23 07:40:17;;;;;;;42.47;19.10;;;7.50;99.90;;;;;;6130054;23;20017;-78
2022/11/23 07:42:43;;;;;;;39.10;18.20;;;7.50;99.90;;;;;;6128698;23;20029;-79
2022/11/23 07:45:10;;;;;;;38.17;17.45;;;7.40;99.90;;;;;;6155942;23;20013;-78
2022/11/23 07:47:36;;;;;;;47.60;20.67;;;7.50;99.90;;;;;;6155799;23;20480;-79
2022/11/23 07:50:02;;;;;;;41.65;18.58;;;7.50;99.90;;;;;;6155653;23;20448;-79
2022/11/23 07:52:27;;;;;;;42.28;18.45;;;7.40;99.90;;;;;;6156061;23;20018;-77
2022/11/23 07:54:53;;;;;;;41.65;18.55;;;7.50;99.90;;;;;;6156088;23;20396;-79
2022/11/23 07:57:19;;;;;;;39.42;17.60;;;7.50;99.90;;;;;;6130131;23;20014;-79
2022/11/23 07:59:44;;;;;;;42.88;18.60;;;7.50;99.90;;;;;;6131509;23;20025;-79
2022/11/23 08:02:13;;;;;;;34.67;15.73;;;7.50;99.90;;;;;;6131655;23;20009;-78
2022/11/23 08:04:39;;;;;;;34.35;15.48;;;7.50;99.90;;;;;;6157557;23;20027;-77
2022/11/23 08:07:04;;;;;;;39.50;16.25;;;7.50;99.90;;;;;;6158034;23;20052;-79
2022/11/23 08:09:30;;;;;;;32.25;14.88;;;7.50;99.90;;;;;;6157909;23;20033;-78
2022/11/23 08:11:56;;;;;;;30.83;14.75;;;7.50;99.90;;;;;;6157802;23;20068;-78
2022/11/23 08:14:22;;;;;;;35.22;15.63;;;7.50;99.90;;;;;;6157536;23;20084;-78
2022/11/23 08:16:51;;;;;;;32.50;13.85;;;7.50;99.90;;;;;;6157878;23;20109;-79
2022/11/23 08:19:17;;;;;;;32.40;14.45;;;7.50;99.90;;;;;;6157573;23;20037;-80
2022/11/23 08:21:44;;;;;;;34.38;13.65;;;7.60;99.90;;;;;;6131501;23;20028;-79
2022/11/23 08:24:10;;;;;;;27.35;12.52;;;7.60;99.90;;;;;;6131173;23;20382;-79
2022/11/23 08:26:36;;;;;;;29.52;12.98;;;7.60;99.90;;;;;;6157805;23;20021;-80
2022/11/23 08:29:02;;;;;;;27.45;12.25;;;7.60;99.90;;;;;;6157616;23;20426;-80
2022/11/23 08:31:28;;;;;;;27.23;12.48;;;7.70;99.90;;;;;;6157763;23;20018;-79
2022/11/23 08:33:53;;;;;;;29.83;13.38;;;7.60;99.90;;;;;;6131184;23;20350;-80
2022/11/23 08:36:19;;;;;;;27.40;12.48;;;7.70;99.90;;;;;;6157289;23;20427;-79
2022/11/23 08:38:45;;;;;;;31.55;13.15;;;7.60;99.90;;;;;;6130734;23;20096;-79
2022/11/23 08:41:11;;;;;;;24.33;11.75;;;7.60;99.90;;;;;;6157216;23;20020;-79
2022/11/23 08:43:36;;;;;;;29.63;12.57;;;7.70;99.90;;;;;;6156999;23;20093;-79
2022/11/23 08:46:03;;;;;;;23.35;11.10;;;7.70;99.90;;;;;;6131151;23;20017;-79
2022/11/23 08:48:29;;;;;;;27.83;11.68;;;7.70;99.90;;;;;;6157546;23;20013;-80
2022/11/23 08:50:58;;;;;;;26.67;12.10;;;7.70;99.90;;;;;;6157165;23;20084;-80
2022/11/23 08:53:24;;;;;;;26.40;10.18;;;7.70;99.90;;;;;;6157532;23;20013;-80
2022/11/23 08:55:49;;;;;;;28.15;10.20;;;7.80;99.90;;;;;;6157440;23;20075;-80
2022/11/23 08:58:15;;;;;;;24.05;10.45;;;7.80;99.90;;;;;;6131022;23;20014;-79
2022/11/23 09:00:41;;;;;;;24.23;9.88;;;7.80;99.90;;;;;;6130800;23;20028;-81
2022/11/23 09:03:06;;;;;;;27.35;11.43;;;7.80;99.90;;;;;;6157424;23;20017;-80
2022/11/23 09:05:32;;;;;;;27.20;9.70;;;7.80;99.90;;;;;;6156184;23;20021;-79
2022/11/23 09:08:01;;;;;;;21.35;9.57;;;7.80;99.90;;;;;;6156825;23;20009;-81
2022/11/23 09:10:26;;;;;;;22.38;10.20;;;7.80;99.90;;;;;;6156297;23;20347;-81
2022/11/23 09:12:52;;;;;;;20.70;10.00;;;7.80;99.90;;;;;;6156787;23;20457;-81
2022/11/23 09:15:18;;;;;;;24.60;10.38;;;7.90;99.90;;;;;;6156581;23;20024;-81
2022/11/23 09:17:44;;;;;;;22.27;8.85;;;7.90;99.90;;;;;;6157016;23;20017;-81
2022/11/23 09:20:10;;;;;;;24.55;11.02;;;7.90;99.90;;;;;;6156447;23;20013;-81
2022/11/23 09:22:36;;;;;;;27.65;10.52;;;7.90;99.90;;;;;;6157195;23;20013;-80
2022/11/23 09:25:03;;;;;;;23.27;9.10;;;8.00;99.90;;;;;;6156762;23;20021;-81
2022/11/23 09:27:29;;;;;;;26.88;11.40;;;7.90;99.90;;;;;;6130558;23;20029;-81
2022/11/23 09:29:55;;;;;;;23.42;10.20;;;8.00;99.90;;;;;;6156656;23;20453;-81
2022/11/23 09:32:20;;;;;;;19.52;8.15;;;8.00;99.90;;;;;;6156465;23;20113;-80
2022/11/23 09:34:46;;;;;;;22.23;9.10;;;8.00;99.90;;;;;;6156959;23;20038;-81
2022/11/23 09:37:12;;;;;;;27.02;11.63;;;8.10;99.90;;;;;;6130494;23;20346;-81
2022/11/23 09:39:38;;;;;;;24.17;9.18;;;8.10;99.90;;;;;;6130504;23;20024;-81
2022/11/23 09:42:34;;;;;;;18.00;8.82;;;8.20;99.90;;;;;;6156982;23;20029;-80
2022/11/23 09:45:36;;;;;;;23.40;9.88;;;8.30;99.90;;;;;;6156706;23;20337;-81
2022/11/23 09:48:20;;;;;;;16.23;7.72;;;8.30;99.90;;;;;;6130558;23;20092;-80
2022/11/23 09:50:51;;;;;;;25.38;9.00;;;8.40;99.90;;;;;;6157018;23;20105;-81
2022/11/23 09:53:23;;;;;;;19.77;8.00;;;8.30;99.90;;;;;;6156743;23;20025;-81
2022/11/23 09:55:55;;;;;;;18.52;7.82;;;8.30;99.90;;;;;;6156404;23;20442;-81
2022/11/23 09:58:23;;;;;;;22.08;8.13;;;8.30;99.90;;;;;;6129373;23;20064;-79
2022/11/23 10:01:01;;;;;;;19.80;8.18;;;8.30;99.90;;;;;;6154736;23;20496;-81
2022/11/23 10:03:28;;;;;;;24.15;7.75;;;8.30;99.90;;;;;;6156535;23;20024;-81
2022/11/23 10:06:06;;;;;;;15.98;7.25;;;8.40;99.90;;;;;;6155233;23;20387;-80
2022/11/23 10:08:46;;;;;;;16.55;7.50;;;8.40;99.90;;;;;;6130181;23;20018;-81
2022/11/23 10:11:21;;;;;;;14.55;7.70;;;8.50;99.90;;;;;;6156485;23;20465;-81
2022/11/23 10:14:24;;;;;;;21.27;7.70;;;8.50;99.90;;;;;;6130331;23;20017;-81
2022/11/23 10:17:08;;;;;;;18.90;7.60;;;8.50;99.90;;;;;;6156596;23;20076;-81
2022/11/23 10:19:48;;;;;;;17.10;6.80;;;8.50;99.90;;;;;;6156723;23;20072;-81
2022/11/23 10:22:49;;;;;;;15.65;6.60;;;8.60;99.90;;;;;;6156689;23;20018;-81
2022/11/23 10:25:23;;;;;;;16.38;6.20;;;8.70;99.90;;;;;;6130210;23;20026;-81
2022/11/23 10:27:52;;;;;;;13.35;5.70;;;8.60;99.90;;;;;;6156578;23;20013;-81
2022/11/23 10:30:19;;;;;;;14.02;6.38;;;8.70;99.90;;;;;;6156659;23;20032;-81
2022/11/23 10:32:44;;;;;;;15.93;6.55;;;8.60;99.90;;;;;;6129363;23;20026;-81
2022/11/23 10:35:17;;;;;;;16.92;6.97;;;8.70;99.90;;;;;;6156225;23;20024;-81
2022/11/23 10:37:43;;;;;;;14.40;5.80;;;8.70;99.90;;;;;;6156130;23;20017;-81
2022/11/23 10:40:24;;;;;;;16.80;6.18;;;8.80;99.90;;;;;;6156509;23;20064;-80
2022/11/23 10:42:57;;;;;;;18.75;5.72;;;8.90;99.90;;;;;;6155946;23;20331;-80
2022/11/23 10:45:26;;;;;;;13.65;5.68;;;8.90;99.90;;;;;;6156395;23;20025;-80
2022/11/23 10:48:00;;;;;;;12.52;5.82;;;8.90;99.90;;;;;;6156414;23;20053;-81
2022/11/23 10:50:25;;;;;;;17.90;5.35;;;8.90;99.90;;;;;;6156207;23;20045;-81
2022/11/23 10:52:58;;;;;;;16.58;6.05;;;8.80;99.90;;;;;;6129844;23;20024;-81
2022/11/23 10:55:30;;;;;;;19.70;6.15;;;8.80;99.90;;;;;;6156189;23;20024;-81
2022/11/23 10:57:56;;;;;;;17.80;6.53;;;8.80;99.90;;;;;;6156401;23;20017;-81
2022/11/23 11:00:24;;;;;;;16.60;6.90;;;8.80;99.90;;;;;;6156077;23;20025;-81
2022/11/23 11:02:53;;;;;;;17.52;6.57;;;8.70;99.90;;;;;;6156099;23;20053;-81
2022/11/23 11:05:37;;;;;;;22.38;7.15;;;8.70;99.90;;;;;;6156047;23;20030;-81
2022/11/23 11:08:13;;;;;;;16.73;5.93;;;8.70;99.90;;;;;;6156287;23;20025;-81
2022/11/23 11:10:48;;;;;;;16.30;7.70;;;8.70;99.90;;;;;;6155958;23;20442;-81
2022/11/23 11:13:23;;;;;;;23.05;7.70;;;8.70;99.90;;;;;;6129883;23;20429;-80
2022/11/23 11:15:54;;;;;;;20.10;6.35;;;8.70;99.90;;;;;;6155763;23;20017;-80
2022/11/23 11:18:20;;;;;;;20.83;6.43;;;8.70;99.90;;;;;;6156210;23;20100;-81
2022/11/23 11:20:46;;;;;;;22.50;6.35;;;8.80;99.90;;;;;;6155724;23;20029;-80
2022/11/23 11:23:21;;;;;;;20.25;6.72;;;8.80;99.90;;;;;;6155884;23;20465;-80
2022/11/23 11:25:48;;;;;;;19.73;7.18;;;8.90;99.90;;;;;;6127835;23;20032;-80
2022/11/23 11:28:33;;;;;;;20.25;7.30;;;8.90;99.90;;;;;;6154949;23;20021;-80
2022/11/23 11:31:17;;;;;;;21.13;6.95;;;8.90;99.90;;;;;;6129509;23;20056;-80
2022/11/23 11:33:55;;;;;;;17.92;6.25;;;8.90;99.90;;;;;;6159286;23;20024;-80
2022/11/23 11:36:21;;;;;;;19.48;6.28;;;8.90;99.90;;;;;;6159418;23;20049;-80
2022/11/23 11:38:52;;;;;;;20.50;6.65;;;9.00;99.90;;;;;;6133030;23;20460;-80
2022/11/23 11:41:23;;;;;;;17.25;5.65;;;9.00;99.90;;;;;;6159016;23;20388;-80
2022/11/23 11:43:57;;;;;;;14.38;5.38;;;9.10;99.90;;;;;;6133010;23;20426;-81
2022/11/23 11:46:30;;;;;;;16.58;5.03;;;9.20;99.90;;;;;;6159425;23;20025;-81
2022/11/23 11:49:19;;;;;;;19.33;5.93;;;9.30;99.90;;;;;;6159161;23;20010;-80
2022/11/23 11:51:48;;;;;;;18.38;4.82;;;9.30;99.90;;;;;;6159504;23;20021;-80
2022/11/23 11:54:19;;;;;;;17.02;5.47;;;9.40;99.90;;;;;;6159296;23;20333;-82
2022/11/23 11:56:49;;;;;;;14.73;5.07;;;9.50;99.90;;;;;;6159213;23;20033;-80
2022/11/23 11:59:32;;;;;;;18.92;4.90;;;9.40;99.90;;;;;;6159323;23;20013;-82
2022/11/23 12:02:26;;;;;;;12.20;4.45;;;9.50;99.90;;;;;;6159699;23;20394;-81
2022/11/23 12:05:16;;;;;;;13.98;4.28;;;9.60;99.90;;;;;;6154206;23;20154;-79
2022/11/23 12:08:04;;;;;;;12.60;4.40;;;9.70;99.90;;;;;;6159198;23;20013;-79
2022/11/23 12:10:41;;;;;;;12.82;4.50;;;9.60;99.90;;;;;;6132924;23;20047;-79
2022/11/23 12:13:31;;;;;;;15.02;4.97;;;9.50;99.90;;;;;;6158939;23;20338;-79
2022/11/23 12:16:16;;;;;;;17.10;5.03;;;9.60;99.90;;;;;;6132452;23;20017;-79
2022/11/23 12:19:02;;;;;;;14.98;4.60;;;9.60;99.90;;;;;;6159160;23;20013;-79
2022/11/23 12:21:46;;;;;;;11.55;3.75;;;9.60;99.90;;;;;;6159213;23;20023;-79
2022/11/23 12:24:33;;;;;;;18.25;4.03;;;9.70;99.90;;;;;;6158989;23;20049;-79
2022/11/23 12:27:34;;;;;;;15.55;4.43;;;9.80;99.90;;;;;;6133078;23;20021;-79
2022/11/23 12:30:37;;;;;;;12.80;3.90;;;9.90;99.90;;;;;;6121029;23;20013;-79
2022/11/23 12:33:17;;;;;;;18.88;4.03;;;9.80;99.90;;;;;;6159238;23;20096;-86
2022/11/23 12:36:05;;;;;;;19.83;3.78;;;9.70;99.90;;;;;;6157839;23;20477;-80
2022/11/23 12:38:46;;;;;;;13.55;3.30;;;9.70;99.90;;;;;;6132726;23;20049;-83
2022/11/23 12:41:22;;;;;;;10.93;3.17;;;9.70;99.90;;;;;;6132541;23;20025;-89
2022/11/23 12:43:51;;;;;;;12.20;3.40;;;9.70;99.90;;;;;;6157569;23;20033;-88
2022/11/23 12:46:22;;;;;;;12.20;3.05;;;9.70;99.90;;;;;;6131112;23;20032;-86
2022/11/23 12:48:54;;;;;;;13.25;3.35;;;9.70;99.90;;;;;;6157490;23;20013;-87